sensor_id;sensor_type;location;lat;lon;timestamp;P1;durP1;ratioP1;P2;durP2;ratioP2
21513;SDS011;10918;48.102;11.636;2024-01-06T00:00:36;7.57;;;5.63;;
21513;SDS011;10918;48.102;11.636;2024-01-06T00:03:02;7.63;;;5.43;;
21513;SDS011;10918;48.102;11.636;2024-01-06T00:05:28;10.25;;;6.20;;
21513;SDS011;10918;48.102;11.636;2024-01-06T00:07:54;6.25;;;5.60;;
21513;SDS011;10918;48.102;11.636;2024-01-06T00:10:20;7.38;;;5.72;;
21513;SDS011;10918;48.102;11.636;2024-01-06T00:12:46;7.55;;;5.70;;
21513;SDS011;10918;48.102;11.636;2024-01-06T00:15:13;7.57;;;6.53;;
21513;SDS011;10918;48.102;11.636;2024-01-06T00:17:39;8.30;;;6.18;;
21513;SDS011;10918;48.102;11.636;2024-01-06T00:20:05;8.30;;;5.68;;
21513;SDS011;10918;48.102;11.636;2024-01-06T00:22:32;6.28;;;5.32;;
21513;SDS011;10918;48.102;11.636;2024-01-06T00:24:57;6.40;;;5.13;;
21513;SDS011;10918;48.102;11.636;2024-01-06T00:27:24;5.85;;;5.05;;
21513;SDS011;10918;48.102;11.636;2024-01-06T00:29:50;7.03;;;5.60;;
21513;SDS011;10918;48.102;11.636;2024-01-06T00:32:16;5.95;;;5.05;;
21513;SDS011;10918;48.102;11.636;2024-01-06T00:34:42;7.15;;;5.47;;
21513;SDS011;10918;48.102;11.636;2024-01-06T00:37:08;7.32;;;5.97;;
21513;SDS011;10918;48.102;11.636;2024-01-06T00:39:34;6.05;;;5.05;;
21513;SDS011;10918;48.102;11.636;2024-01-06T00:42:00;5.80;;;4.47;;
21513;SDS011;10918;48.102;11.636;2024-01-06T00:44:26;6.13;;;4.88;;
21513;SDS011;10918;48.102;11.636;2024-01-06T00:46:52;6.90;;;4.82;;
21513;SDS011;10918;48.102;11.636;2024-01-06T00:49:18;6.03;;;4.57;;
21513;SDS011;10918;48.102;11.636;2024-01-06T00:51:44;5.43;;;4.38;;
21513;SDS011;10918;48.102;11.636;2024-01-06T00:54:10;6.38;;;3.97;;
21513;SDS011;10918;48.102;11.636;2024-01-06T00:56:36;5.55;;;4.60;;
21513;SDS011;10918;48.102;11.636;2024-01-06T00:59:02;6.15;;;4.82;;
21513;SDS011;10918;48.102;11.636;2024-01-06T01:01:28;5.68;;;4.43;;
21513;SDS011;10918;48.102;11.636;2024-01-06T01:03:54;4.65;;;3.67;;
21513;SDS011;10918;48.102;11.636;2024-01-06T01:06:20;5.88;;;4.93;;
21513;SDS011;10918;48.102;11.636;2024-01-06T01:08:46;6.25;;;4.90;;
21513;SDS011;10918;48.102;11.636;2024-01-06T01:11:12;6.25;;;4.97;;
21513;SDS011;10918;48.102;11.636;2024-01-06T01:13:38;7.05;;;5.25;;
21513;SDS011;10918;48.102;11.636;2024-01-06T01:16:04;5.00;;;4.50;;
21513;SDS011;10918;48.102;11.636;2024-01-06T01:18:31;5.18;;;4.60;;
21513;SDS011;10918;48.102;11.636;2024-01-06T01:20:56;4.90;;;3.90;;
21513;SDS011;10918;48.102;11.636;2024-01-06T01:23:22;5.10;;;3.72;;
21513;SDS011;10918;48.102;11.636;2024-01-06T01:25:48;4.20;;;3.80;;
21513;SDS011;10918;48.102;11.636;2024-01-06T01:28:14;5.75;;;4.07;;
21513;SDS011;10918;48.102;11.636;2024-01-06T01:30:40;5.80;;;3.35;;
21513;SDS011;10918;48.102;11.636;2024-01-06T01:33:06;4.30;;;3.00;;
21513;SDS011;10918;48.102;11.636;2024-01-06T01:35:33;3.88;;;2.90;;
21513;SDS011;10918;48.102;11.636;2024-01-06T01:37:59;4.22;;;2.83;;
21513;SDS011;10918;48.102;11.636;2024-01-06T01:40:25;3.75;;;2.70;;
21513;SDS011;10918;48.102;11.636;2024-01-06T01:42:50;4.53;;;3.00;;
21513;SDS011;10918;48.102;11.636;2024-01-06T01:45:16;4.10;;;2.80;;
21513;SDS011;10918;48.102;11.636;2024-01-06T01:47:42;4.22;;;2.50;;
21513;SDS011;10918;48.102;11.636;2024-01-06T01:50:10;2.60;;;2.20;;
21513;SDS011;10918;48.102;11.636;2024-01-06T01:52:37;3.45;;;2.42;;
21513;SDS011;10918;48.102;11.636;2024-01-06T01:55:04;2.30;;;1.73;;
21513;SDS011;10918;48.102;11.636;2024-01-06T01:57:30;1.52;;;1.42;;
21513;SDS011;10918;48.102;11.636;2024-01-06T01:59:56;2.22;;;1.83;;
21513;SDS011;10918;48.102;11.636;2024-01-06T02:02:22;1.80;;;1.55;;
21513;SDS011;10918;48.102;11.636;2024-01-06T02:04:48;2.05;;;1.80;;
21513;SDS011;10918;48.102;11.636;2024-01-06T02:07:14;2.45;;;1.80;;
21513;SDS011;10918;48.102;11.636;2024-01-06T02:09:40;3.28;;;2.13;;
21513;SDS011;10918;48.102;11.636;2024-01-06T02:12:06;3.55;;;3.25;;
21513;SDS011;10918;48.102;11.636;2024-01-06T02:14:32;3.95;;;3.08;;
21513;SDS011;10918;48.102;11.636;2024-01-06T02:16:58;3.38;;;1.92;;
21513;SDS011;10918;48.102;11.636;2024-01-06T02:19:24;2.55;;;2.17;;
21513;SDS011;10918;48.102;11.636;2024-01-06T02:21:53;3.05;;;2.03;;
21513;SDS011;10918;48.102;11.636;2024-01-06T02:24:20;3.42;;;2.30;;
21513;SDS011;10918;48.102;11.636;2024-01-06T02:26:46;3.45;;;2.17;;
21513;SDS011;10918;48.102;11.636;2024-01-06T02:29:12;3.45;;;2.40;;
21513;SDS011;10918;48.102;11.636;2024-01-06T02:31:38;3.30;;;2.67;;
21513;SDS011;10918;48.102;11.636;2024-01-06T02:34:04;4.20;;;2.28;;
21513;SDS011;10918;48.102;11.636;2024-01-06T02:36:30;3.40;;;2.67;;
21513;SDS011;10918;48.102;11.636;2024-01-06T02:38:56;2.75;;;2.38;;
21513;SDS011;10918;48.102;11.636;2024-01-06T02:41:22;3.33;;;2.78;;
21513;SDS011;10918;48.102;11.636;2024-01-06T02:43:49;2.95;;;2.63;;
21513;SDS011;10918;48.102;11.636;2024-01-06T02:46:15;4.05;;;2.15;;
21513;SDS011;10918;48.102;11.636;2024-01-06T02:48:41;3.55;;;2.47;;
21513;SDS011;10918;48.102;11.636;2024-01-06T02:51:07;2.80;;;2.10;;
21513;SDS011;10918;48.102;11.636;2024-01-06T02:53:33;2.78;;;2.30;;
21513;SDS011;10918;48.102;11.636;2024-01-06T02:55:59;4.45;;;2.72;;
21513;SDS011;10918;48.102;11.636;2024-01-06T02:58:25;3.85;;;2.60;;
21513;SDS011;10918;48.102;11.636;2024-01-06T03:00:51;3.22;;;2.67;;
21513;SDS011;10918;48.102;11.636;2024-01-06T03:03:17;3.28;;;2.58;;
21513;SDS011;10918;48.102;11.636;2024-01-06T03:05:43;2.83;;;2.40;;
21513;SDS011;10918;48.102;11.636;2024-01-06T03:08:09;3.75;;;2.38;;
21513;SDS011;10918;48.102;11.636;2024-01-06T03:10:36;5.05;;;2.85;;
21513;SDS011;10918;48.102;11.636;2024-01-06T03:13:03;4.10;;;2.90;;
21513;SDS011;10918;48.102;11.636;2024-01-06T03:15:29;3.95;;;3.17;;
21513;SDS011;10918;48.102;11.636;2024-01-06T03:17:55;4.00;;;2.50;;
21513;SDS011;10918;48.102;11.636;2024-01-06T03:20:21;3.22;;;2.50;;
21513;SDS011;10918;48.102;11.636;2024-01-06T03:22:47;4.28;;;2.40;;
21513;SDS011;10918;48.102;11.636;2024-01-06T03:25:13;2.58;;;2.00;;
21513;SDS011;10918;48.102;11.636;2024-01-06T03:27:39;2.50;;;2.15;;
21513;SDS011;10918;48.102;11.636;2024-01-06T03:30:05;3.67;;;1.98;;
21513;SDS011;10918;48.102;11.636;2024-01-06T03:32:31;2.38;;;1.67;;
21513;SDS011;10918;48.102;11.636;2024-01-06T03:34:57;1.50;;;1.40;;
21513;SDS011;10918;48.102;11.636;2024-01-06T03:37:23;1.98;;;1.50;;
21513;SDS011;10918;48.102;11.636;2024-01-06T03:39:49;3.08;;;1.55;;
21513;SDS011;10918;48.102;11.636;2024-01-06T03:42:15;1.40;;;1.30;;
21513;SDS011;10918;48.102;11.636;2024-01-06T03:44:41;2.15;;;1.85;;
21513;SDS011;10918;48.102;11.636;2024-01-06T03:47:07;1.65;;;1.42;;
21513;SDS011;10918;48.102;11.636;2024-01-06T03:49:33;2.17;;;1.52;;
21513;SDS011;10918;48.102;11.636;2024-01-06T03:51:59;1.38;;;1.17;;
21513;SDS011;10918;48.102;11.636;2024-01-06T03:54:25;1.45;;;1.33;;
21513;SDS011;10918;48.102;11.636;2024-01-06T03:56:51;1.60;;;1.40;;
21513;SDS011;10918;48.102;11.636;2024-01-06T03:59:17;2.20;;;1.30;;
21513;SDS011;10918;48.102;11.636;2024-01-06T04:01:43;1.88;;;1.60;;
21513;SDS011;10918;48.102;11.636;2024-01-06T04:04:09;2.47;;;2.05;;
21513;SDS011;10918;48.102;11.636;2024-01-06T04:06:35;3.60;;;3.30;;
21513;SDS011;10918;48.102;11.636;2024-01-06T04:09:01;2.55;;;2.00;;
21513;SDS011;10918;48.102;11.636;2024-01-06T04:11:27;1.65;;;1.55;;
21513;SDS011;10918;48.102;11.636;2024-01-06T04:13:53;2.03;;;1.58;;
21513;SDS011;10918;48.102;11.636;2024-01-06T04:16:19;1.95;;;1.60;;
21513;SDS011;10918;48.102;11.636;2024-01-06T04:18:46;1.60;;;1.50;;
21513;SDS011;10918;48.102;11.636;2024-01-06T04:21:12;1.90;;;1.80;;
21513;SDS011;10918;48.102;11.636;2024-01-06T04:23:38;1.77;;;1.50;;
21513;SDS011;10918;48.102;11.636;2024-01-06T04:26:04;1.58;;;1.48;;
21513;SDS011;10918;48.102;11.636;2024-01-06T04:28:31;2.35;;;1.52;;
21513;SDS011;10918;48.102;11.636;2024-01-06T04:30:57;1.38;;;1.25;;
21513;SDS011;10918;48.102;11.636;2024-01-06T04:33:23;1.35;;;1.17;;
21513;SDS011;10918;48.102;11.636;2024-01-06T04:35:49;0.90;;;0.90;;
21513;SDS011;10918;48.102;11.636;2024-01-06T04:38:15;1.27;;;1.10;;
21513;SDS011;10918;48.102;11.636;2024-01-06T04:40:41;1.08;;;0.93;;
21513;SDS011;10918;48.102;11.636;2024-01-06T04:43:08;0.88;;;0.88;;
21513;SDS011;10918;48.102;11.636;2024-01-06T04:45:34;0.80;;;0.80;;
21513;SDS011;10918;48.102;11.636;2024-01-06T04:48:02;1.52;;;0.90;;
21513;SDS011;10918;48.102;11.636;2024-01-06T04:50:28;1.88;;;0.80;;
21513;SDS011;10918;48.102;11.636;2024-01-06T04:52:54;1.02;;;0.90;;
21513;SDS011;10918;48.102;11.636;2024-01-06T04:55:20;0.65;;;0.65;;
21513;SDS011;10918;48.102;11.636;2024-01-06T04:57:47;1.08;;;0.98;;
21513;SDS011;10918;48.102;11.636;2024-01-06T05:00:13;0.95;;;0.70;;
21513;SDS011;10918;48.102;11.636;2024-01-06T05:02:40;1.23;;;1.13;;
21513;SDS011;10918;48.102;11.636;2024-01-06T05:05:06;1.27;;;0.90;;
21513;SDS011;10918;48.102;11.636;2024-01-06T05:07:32;0.80;;;0.80;;
21513;SDS011;10918;48.102;11.636;2024-01-06T05:09:58;1.83;;;0.85;;
21513;SDS011;10918;48.102;11.636;2024-01-06T05:12:24;0.85;;;0.50;;
21513;SDS011;10918;48.102;11.636;2024-01-06T05:14:50;0.52;;;0.50;;
21513;SDS011;10918;48.102;11.636;2024-01-06T05:17:16;0.50;;;0.50;;
21513;SDS011;10918;48.102;11.636;2024-01-06T05:19:42;0.43;;;0.43;;
21513;SDS011;10918;48.102;11.636;2024-01-06T05:22:08;0.63;;;0.30;;
21513;SDS011;10918;48.102;11.636;2024-01-06T05:24:34;0.40;;;0.40;;
21513;SDS011;10918;48.102;11.636;2024-01-06T05:27:00;0.85;;;0.30;;
21513;SDS011;10918;48.102;11.636;2024-01-06T05:29:26;0.40;;;0.30;;
21513;SDS011;10918;48.102;11.636;2024-01-06T05:31:52;0.35;;;0.35;;
21513;SDS011;10918;48.102;11.636;2024-01-06T05:34:18;0.50;;;0.40;;
21513;SDS011;10918;48.102;11.636;2024-01-06T05:36:44;0.15;;;0.15;;
21513;SDS011;10918;48.102;11.636;2024-01-06T05:39:10;0.30;;;0.30;;
21513;SDS011;10918;48.102;11.636;2024-01-06T05:41:39;0.13;;;0.13;;
21513;SDS011;10918;48.102;11.636;2024-01-06T05:44:05;0.20;;;0.20;;
21513;SDS011;10918;48.102;11.636;2024-01-06T05:46:32;0.17;;;0.17;;
21513;SDS011;10918;48.102;11.636;2024-01-06T05:48:58;0.30;;;0.30;;
21513;SDS011;10918;48.102;11.636;2024-01-06T05:51:24;0.20;;;0.20;;
21513;SDS011;10918;48.102;11.636;2024-01-06T05:53:50;0.28;;;0.28;;
21513;SDS011;10918;48.102;11.636;2024-01-06T05:56:26;0.40;;;0.40;;
21513;SDS011;10918;48.102;11.636;2024-01-06T05:58:52;0.60;;;0.60;;
21513;SDS011;10918;48.102;11.636;2024-01-06T06:01:18;0.65;;;0.43;;
21513;SDS011;10918;48.102;11.636;2024-01-06T06:03:45;0.40;;;0.40;;
21513;SDS011;10918;48.102;11.636;2024-01-06T06:06:11;0.40;;;0.40;;
21513;SDS011;10918;48.102;11.636;2024-01-06T06:08:37;0.40;;;0.40;;
21513;SDS011;10918;48.102;11.636;2024-01-06T06:11:03;0.30;;;0.30;;
21513;SDS011;10918;48.102;11.636;2024-01-06T06:13:36;0.30;;;0.30;;
21513;SDS011;10918;48.102;11.636;2024-01-06T06:16:02;0.50;;;0.40;;
21513;SDS011;10918;48.102;11.636;2024-01-06T06:18:28;0.50;;;0.50;;
21513;SDS011;10918;48.102;11.636;2024-01-06T06:20:54;0.47;;;0.47;;
21513;SDS011;10918;48.102;11.636;2024-01-06T06:23:20;1.00;;;0.70;;
21513;SDS011;10918;48.102;11.636;2024-01-06T06:25:46;0.80;;;0.73;;
21513;SDS011;10918;48.102;11.636;2024-01-06T06:28:12;0.98;;;0.80;;
21513;SDS011;10918;48.102;11.636;2024-01-06T06:30:38;0.60;;;0.60;;
21513;SDS011;10918;48.102;11.636;2024-01-06T06:33:04;0.57;;;0.57;;
21513;SDS011;10918;48.102;11.636;2024-01-06T06:35:30;0.80;;;0.80;;
21513;SDS011;10918;48.102;11.636;2024-01-06T06:37:56;0.93;;;0.93;;
21513;SDS011;10918;48.102;11.636;2024-01-06T06:40:23;1.15;;;1.00;;
21513;SDS011;10918;48.102;11.636;2024-01-06T06:42:49;1.00;;;1.00;;
21513;SDS011;10918;48.102;11.636;2024-01-06T06:45:14;2.25;;;1.42;;
21513;SDS011;10918;48.102;11.636;2024-01-06T06:47:41;1.40;;;1.10;;
21513;SDS011;10918;48.102;11.636;2024-01-06T06:50:07;2.58;;;1.38;;
21513;SDS011;10918;48.102;11.636;2024-01-06T06:52:33;1.23;;;1.13;;
21513;SDS011;10918;48.102;11.636;2024-01-06T06:54:59;1.52;;;1.33;;
21513;SDS011;10918;48.102;11.636;2024-01-06T06:57:30;1.00;;;0.98;;
21513;SDS011;10918;48.102;11.636;2024-01-06T06:59:57;3.58;;;1.50;;
21513;SDS011;10918;48.102;11.636;2024-01-06T07:02:23;1.30;;;1.02;;
21513;SDS011;10918;48.102;11.636;2024-01-06T07:04:49;1.38;;;1.17;;
21513;SDS011;10918;48.102;11.636;2024-01-06T07:07:16;1.60;;;1.20;;
21513;SDS011;10918;48.102;11.636;2024-01-06T07:09:42;1.45;;;1.20;;
21513;SDS011;10918;48.102;11.636;2024-01-06T07:12:08;1.58;;;1.17;;
21513;SDS011;10918;48.102;11.636;2024-01-06T07:14:34;1.13;;;1.05;;
21513;SDS011;10918;48.102;11.636;2024-01-06T07:16:59;1.40;;;1.30;;
21513;SDS011;10918;48.102;11.636;2024-01-06T07:19:25;1.52;;;1.33;;
21513;SDS011;10918;48.102;11.636;2024-01-06T07:21:51;2.35;;;1.55;;
21513;SDS011;10918;48.102;11.636;2024-01-06T07:24:17;1.60;;;1.10;;
21513;SDS011;10918;48.102;11.636;2024-01-06T07:26:43;1.58;;;1.30;;
21513;SDS011;10918;48.102;11.636;2024-01-06T07:29:09;1.80;;;1.20;;
21513;SDS011;10918;48.102;11.636;2024-01-06T07:31:35;1.70;;;1.30;;
21513;SDS011;10918;48.102;11.636;2024-01-06T07:34:01;2.65;;;1.48;;
21513;SDS011;10918;48.102;11.636;2024-01-06T07:36:27;1.88;;;1.42;;
21513;SDS011;10918;48.102;11.636;2024-01-06T07:38:53;3.15;;;1.90;;
21513;SDS011;10918;48.102;11.636;2024-01-06T07:41:21;1.65;;;1.48;;
21513;SDS011;10918;48.102;11.636;2024-01-06T07:43:47;2.05;;;1.63;;
21513;SDS011;10918;48.102;11.636;2024-01-06T07:46:13;2.15;;;1.70;;
21513;SDS011;10918;48.102;11.636;2024-01-06T07:48:39;2.03;;;1.70;;
21513;SDS011;10918;48.102;11.636;2024-01-06T07:51:05;2.08;;;1.75;;
21513;SDS011;10918;48.102;11.636;2024-01-06T07:53:31;2.63;;;1.85;;
21513;SDS011;10918;48.102;11.636;2024-01-06T07:55:57;1.67;;;1.48;;
21513;SDS011;10918;48.102;11.636;2024-01-06T07:58:23;1.83;;;1.33;;
21513;SDS011;10918;48.102;11.636;2024-01-06T08:00:49;1.50;;;1.40;;
21513;SDS011;10918;48.102;11.636;2024-01-06T08:03:15;1.90;;;1.67;;
21513;SDS011;10918;48.102;11.636;2024-01-06T08:05:41;1.73;;;1.63;;
21513;SDS011;10918;48.102;11.636;2024-01-06T08:08:07;1.55;;;1.35;;
21513;SDS011;10918;48.102;11.636;2024-01-06T08:10:33;2.05;;;1.67;;
21513;SDS011;10918;48.102;11.636;2024-01-06T08:12:59;1.73;;;1.42;;
21513;SDS011;10918;48.102;11.636;2024-01-06T08:15:25;1.67;;;1.58;;
21513;SDS011;10918;48.102;11.636;2024-01-06T08:17:51;1.40;;;1.30;;
21513;SDS011;10918;48.102;11.636;2024-01-06T08:20:17;1.95;;;1.55;;
21513;SDS011;10918;48.102;11.636;2024-01-06T08:22:43;1.88;;;1.50;;
21513;SDS011;10918;48.102;11.636;2024-01-06T08:25:09;2.67;;;1.48;;
21513;SDS011;10918;48.102;11.636;2024-01-06T08:27:35;2.25;;;1.60;;
21513;SDS011;10918;48.102;11.636;2024-01-06T08:30:02;2.40;;;1.27;;
21513;SDS011;10918;48.102;11.636;2024-01-06T08:32:28;1.85;;;1.45;;
21513;SDS011;10918;48.102;11.636;2024-01-06T08:34:54;2.47;;;1.75;;
21513;SDS011;10918;48.102;11.636;2024-01-06T08:37:20;2.03;;;1.33;;
21513;SDS011;10918;48.102;11.636;2024-01-06T08:39:46;2.88;;;1.45;;
21513;SDS011;10918;48.102;11.636;2024-01-06T08:42:12;2.35;;;1.50;;
21513;SDS011;10918;48.102;11.636;2024-01-06T08:44:38;3.00;;;1.80;;
21513;SDS011;10918;48.102;11.636;2024-01-06T08:47:04;2.58;;;1.80;;
21513;SDS011;10918;48.102;11.636;2024-01-06T08:49:30;2.58;;;1.52;;
21513;SDS011;10918;48.102;11.636;2024-01-06T08:51:56;2.67;;;1.40;;
21513;SDS011;10918;48.102;11.636;2024-01-06T08:54:22;3.40;;;1.48;;
21513;SDS011;10918;48.102;11.636;2024-01-06T08:56:49;2.88;;;1.35;;
21513;SDS011;10918;48.102;11.636;2024-01-06T08:59:15;4.47;;;1.90;;
21513;SDS011;10918;48.102;11.636;2024-01-06T09:01:41;2.72;;;2.00;;
21513;SDS011;10918;48.102;11.636;2024-01-06T09:04:07;3.40;;;2.20;;
21513;SDS011;10918;48.102;11.636;2024-01-06T09:06:36;4.32;;;2.20;;
21513;SDS011;10918;48.102;11.636;2024-01-06T09:09:02;3.28;;;2.38;;
21513;SDS011;10918;48.102;11.636;2024-01-06T09:11:28;2.58;;;2.30;;
21513;SDS011;10918;48.102;11.636;2024-01-06T09:13:54;3.15;;;2.00;;
21513;SDS011;10918;48.102;11.636;2024-01-06T09:16:20;3.67;;;2.10;;
21513;SDS011;10918;48.102;11.636;2024-01-06T09:18:46;4.53;;;2.00;;
21513;SDS011;10918;48.102;11.636;2024-01-06T09:21:12;3.83;;;2.00;;
21513;SDS011;10918;48.102;11.636;2024-01-06T09:23:38;2.67;;;1.92;;
21513;SDS011;10918;48.102;11.636;2024-01-06T09:26:04;4.18;;;2.13;;
21513;SDS011;10918;48.102;11.636;2024-01-06T09:28:30;2.20;;;1.73;;
21513;SDS011;10918;48.102;11.636;2024-01-06T09:30:56;3.20;;;2.00;;
21513;SDS011;10918;48.102;11.636;2024-01-06T09:33:22;4.30;;;2.00;;
21513;SDS011;10918;48.102;11.636;2024-01-06T09:35:48;2.70;;;1.83;;
21513;SDS011;10918;48.102;11.636;2024-01-06T09:38:15;2.25;;;1.52;;
21513;SDS011;10918;48.102;11.636;2024-01-06T09:40:43;3.72;;;1.73;;
21513;SDS011;10918;48.102;11.636;2024-01-06T09:43:10;4.82;;;1.75;;
21513;SDS011;10918;48.102;11.636;2024-01-06T09:45:38;3.10;;;1.60;;
21513;SDS011;10918;48.102;11.636;2024-01-06T09:48:13;11.20;;;7.68;;
21513;SDS011;10918;48.102;11.636;2024-01-06T09:50:43;2.42;;;1.50;;
21513;SDS011;10918;48.102;11.636;2024-01-06T09:53:12;4.20;;;2.00;;
21513;SDS011;10918;48.102;11.636;2024-01-06T09:55:39;3.15;;;1.75;;
21513;SDS011;10918;48.102;11.636;2024-01-06T09:58:05;3.60;;;1.80;;
21513;SDS011;10918;48.102;11.636;2024-01-06T10:00:31;2.08;;;1.58;;
21513;SDS011;10918;48.102;11.636;2024-01-06T10:02:58;4.20;;;1.70;;
21513;SDS011;10918;48.102;11.636;2024-01-06T10:05:24;2.13;;;1.92;;
21513;SDS011;10918;48.102;11.636;2024-01-06T10:07:50;5.82;;;1.75;;
21513;SDS011;10918;48.102;11.636;2024-01-06T10:10:16;4.68;;;1.85;;
21513;SDS011;10918;48.102;11.636;2024-01-06T10:12:42;3.40;;;2.28;;
21513;SDS011;10918;48.102;11.636;2024-01-06T10:15:09;3.72;;;2.88;;
21513;SDS011;10918;48.102;11.636;2024-01-06T10:17:42;5.05;;;2.33;;
21513;SDS011;10918;48.102;11.636;2024-01-06T10:20:09;4.65;;;2.13;;
21513;SDS011;10918;48.102;11.636;2024-01-06T10:22:38;3.13;;;1.83;;
21513;SDS011;10918;48.102;11.636;2024-01-06T10:25:06;4.82;;;2.42;;
21513;SDS011;10918;48.102;11.636;2024-01-06T10:27:36;4.53;;;2.10;;
21513;SDS011;10918;48.102;11.636;2024-01-06T10:30:03;5.05;;;3.08;;
21513;SDS011;10918;48.102;11.636;2024-01-06T10:32:32;5.68;;;2.67;;
21513;SDS011;10918;48.102;11.636;2024-01-06T10:35:00;5.22;;;2.80;;
21513;SDS011;10918;48.102;11.636;2024-01-06T10:37:26;3.78;;;2.38;;
21513;SDS011;10918;48.102;11.636;2024-01-06T10:40:08;4.18;;;2.65;;
21513;SDS011;10918;48.102;11.636;2024-01-06T10:42:35;6.25;;;3.00;;
21513;SDS011;10918;48.102;11.636;2024-01-06T10:45:01;3.53;;;2.25;;
21513;SDS011;10918;48.102;11.636;2024-01-06T10:47:30;4.28;;;2.47;;
21513;SDS011;10918;48.102;11.636;2024-01-06T10:50:00;4.07;;;2.50;;
21513;SDS011;10918;48.102;11.636;2024-01-06T10:52:27;5.22;;;2.80;;
21513;SDS011;10918;48.102;11.636;2024-01-06T10:54:56;5.07;;;2.50;;
21513;SDS011;10918;48.102;11.636;2024-01-06T10:57:22;4.70;;;2.85;;
21513;SDS011;10918;48.102;11.636;2024-01-06T10:59:51;5.53;;;3.60;;
21513;SDS011;10918;48.102;11.636;2024-01-06T11:02:18;8.77;;;4.20;;
21513;SDS011;10918;48.102;11.636;2024-01-06T11:04:48;3.85;;;2.67;;
21513;SDS011;10918;48.102;11.636;2024-01-06T11:07:16;6.20;;;3.05;;
21513;SDS011;10918;48.102;11.636;2024-01-06T11:09:44;5.80;;;3.50;;
21513;SDS011;10918;48.102;11.636;2024-01-06T11:12:15;4.57;;;2.90;;
21513;SDS011;10918;48.102;11.636;2024-01-06T11:14:41;6.63;;;2.80;;
21513;SDS011;10918;48.102;11.636;2024-01-06T11:17:07;4.97;;;3.20;;
21513;SDS011;10918;48.102;11.636;2024-01-06T11:22:18;6.65;;;3.00;;
21513;SDS011;10918;48.102;11.636;2024-01-06T11:24:48;9.52;;;5.20;;
21513;SDS011;10918;48.102;11.636;2024-01-06T11:27:17;5.50;;;3.58;;
21513;SDS011;10918;48.102;11.636;2024-01-06T11:29:44;5.63;;;3.03;;
21513;SDS011;10918;48.102;11.636;2024-01-06T11:34:49;7.10;;;3.42;;
21513;SDS011;10918;48.102;11.636;2024-01-06T11:37:16;5.00;;;2.83;;
21513;SDS011;10918;48.102;11.636;2024-01-06T11:39:44;4.78;;;3.20;;
21513;SDS011;10918;48.102;11.636;2024-01-06T11:42:10;5.32;;;3.88;;
21513;SDS011;10918;48.102;11.636;2024-01-06T11:44:37;8.32;;;3.17;;
21513;SDS011;10918;48.102;11.636;2024-01-06T11:47:03;9.07;;;3.40;;
21513;SDS011;10918;48.102;11.636;2024-01-06T11:49:29;5.30;;;3.15;;
21513;SDS011;10918;48.102;11.636;2024-01-06T11:51:56;10.75;;;5.60;;
21513;SDS011;10918;48.102;11.636;2024-01-06T11:54:22;5.00;;;3.10;;
21513;SDS011;10918;48.102;11.636;2024-01-06T11:56:48;5.45;;;2.90;;
21513;SDS011;10918;48.102;11.636;2024-01-06T11:59:14;4.05;;;2.88;;
21513;SDS011;10918;48.102;11.636;2024-01-06T12:01:40;6.82;;;3.10;;
21513;SDS011;10918;48.102;11.636;2024-01-06T12:04:07;4.80;;;2.67;;
21513;SDS011;10918;48.102;11.636;2024-01-06T12:06:33;6.30;;;3.45;;
21513;SDS011;10918;48.102;11.636;2024-01-06T12:09:12;7.97;;;3.55;;
21513;SDS011;10918;48.102;11.636;2024-01-06T12:11:41;4.57;;;3.30;;
21513;SDS011;10918;48.102;11.636;2024-01-06T12:14:10;4.85;;;3.05;;
21513;SDS011;10918;48.102;11.636;2024-01-06T12:16:36;6.18;;;3.50;;
21513;SDS011;10918;48.102;11.636;2024-01-06T12:19:02;4.70;;;3.67;;
21513;SDS011;10918;48.102;11.636;2024-01-06T12:21:28;6.07;;;3.38;;
21513;SDS011;10918;48.102;11.636;2024-01-06T12:24:12;5.47;;;3.70;;
21513;SDS011;10918;48.102;11.636;2024-01-06T12:26:40;7.05;;;3.10;;
21513;SDS011;10918;48.102;11.636;2024-01-06T12:29:06;6.38;;;3.90;;
21513;SDS011;10918;48.102;11.636;2024-01-06T12:31:32;6.93;;;3.50;;
21513;SDS011;10918;48.102;11.636;2024-01-06T12:33:59;7.05;;;3.88;;
21513;SDS011;10918;48.102;11.636;2024-01-06T12:36:25;5.97;;;3.72;;
21513;SDS011;10918;48.102;11.636;2024-01-06T12:38:51;4.15;;;3.38;;
21513;SDS011;10918;48.102;11.636;2024-01-06T12:41:17;14.95;;;8.65;;
21513;SDS011;10918;48.102;11.636;2024-01-06T12:43:43;6.45;;;4.00;;
21513;SDS011;10918;48.102;11.636;2024-01-06T12:46:09;5.25;;;2.88;;
21513;SDS011;10918;48.102;11.636;2024-01-06T12:48:35;3.13;;;2.50;;
21513;SDS011;10918;48.102;11.636;2024-01-06T12:51:01;4.82;;;2.47;;
21513;SDS011;10918;48.102;11.636;2024-01-06T12:53:27;2.70;;;2.42;;
21513;SDS011;10918;48.102;11.636;2024-01-06T12:55:53;4.05;;;2.83;;
21513;SDS011;10918;48.102;11.636;2024-01-06T12:58:19;4.05;;;2.97;;
21513;SDS011;10918;48.102;11.636;2024-01-06T13:00:45;3.83;;;2.50;;
21513;SDS011;10918;48.102;11.636;2024-01-06T13:03:11;3.67;;;3.05;;
21513;SDS011;10918;48.102;11.636;2024-01-06T13:05:39;6.60;;;4.15;;
21513;SDS011;10918;48.102;11.636;2024-01-06T13:08:05;4.05;;;3.45;;
21513;SDS011;10918;48.102;11.636;2024-01-06T13:10:32;4.78;;;3.70;;
21513;SDS011;10918;48.102;11.636;2024-01-06T13:12:59;4.90;;;3.40;;
21513;SDS011;10918;48.102;11.636;2024-01-06T13:15:25;5.72;;;3.08;;
21513;SDS011;10918;48.102;11.636;2024-01-06T13:17:51;6.00;;;2.85;;
21513;SDS011;10918;48.102;11.636;2024-01-06T13:20:17;5.47;;;3.30;;
21513;SDS011;10918;48.102;11.636;2024-01-06T13:22:43;4.35;;;3.25;;
21513;SDS011;10918;48.102;11.636;2024-01-06T13:25:09;12.10;;;7.00;;
21513;SDS011;10918;48.102;11.636;2024-01-06T13:27:36;6.90;;;3.80;;
21513;SDS011;10918;48.102;11.636;2024-01-06T13:30:03;5.68;;;4.13;;
21513;SDS011;10918;48.102;11.636;2024-01-06T13:32:29;4.82;;;3.60;;
21513;SDS011;10918;48.102;11.636;2024-01-06T13:34:55;6.53;;;3.83;;
21513;SDS011;10918;48.102;11.636;2024-01-06T13:37:29;5.25;;;3.47;;
21513;SDS011;10918;48.102;11.636;2024-01-06T13:39:55;5.53;;;3.92;;
21513;SDS011;10918;48.102;11.636;2024-01-06T13:42:21;4.97;;;3.53;;
21513;SDS011;10918;48.102;11.636;2024-01-06T13:44:47;4.88;;;3.90;;
21513;SDS011;10918;48.102;11.636;2024-01-06T13:47:13;7.68;;;4.43;;
21513;SDS011;10918;48.102;11.636;2024-01-06T13:49:39;6.18;;;3.60;;
21513;SDS011;10918;48.102;11.636;2024-01-06T13:52:06;5.80;;;3.38;;
21513;SDS011;10918;48.102;11.636;2024-01-06T13:54:35;6.55;;;3.85;;
21513;SDS011;10918;48.102;11.636;2024-01-06T13:57:01;7.40;;;3.80;;
21513;SDS011;10918;48.102;11.636;2024-01-06T13:59:27;6.55;;;3.92;;
21513;SDS011;10918;48.102;11.636;2024-01-06T14:01:54;8.48;;;4.50;;
21513;SDS011;10918;48.102;11.636;2024-01-06T14:04:20;6.22;;;4.07;;
21513;SDS011;10918;48.102;11.636;2024-01-06T14:06:48;6.80;;;3.72;;
21513;SDS011;10918;48.102;11.636;2024-01-06T14:09:20;7.35;;;4.38;;
21513;SDS011;10918;48.102;11.636;2024-01-06T14:11:47;6.60;;;4.78;;
21513;SDS011;10918;48.102;11.636;2024-01-06T14:14:13;6.47;;;4.00;;
21513;SDS011;10918;48.102;11.636;2024-01-06T14:16:39;6.75;;;4.10;;
21513;SDS011;10918;48.102;11.636;2024-01-06T14:19:05;4.95;;;4.35;;
21513;SDS011;10918;48.102;11.636;2024-01-06T14:21:31;8.85;;;5.43;;
21513;SDS011;10918;48.102;11.636;2024-01-06T14:23:57;5.10;;;4.28;;
21513;SDS011;10918;48.102;11.636;2024-01-06T14:26:23;6.22;;;4.72;;
21513;SDS011;10918;48.102;11.636;2024-01-06T14:28:49;5.38;;;3.60;;
21513;SDS011;10918;48.102;11.636;2024-01-06T14:31:15;3.83;;;3.40;;
21513;SDS011;10918;48.102;11.636;2024-01-06T14:33:41;3.60;;;2.85;;